createdAt,value
2022-12-12T00:02:13.960Z,24.25
2022-12-12T00:04:42.552Z,23.90
2022-12-12T00:07:09.857Z,23.30
2022-12-12T00:09:40.390Z,24.40
2022-12-12T00:12:10.927Z,25.75
2022-12-12T00:14:39.459Z,25.85
2022-12-12T00:17:11.804Z,22.83
2022-12-12T00:19:40.689Z,19.27
2022-12-12T00:22:11.517Z,26.33
2022-12-12T00:27:44.052Z,23.60
2022-12-12T00:30:24.371Z,24.08
2022-12-12T00:32:57.159Z,25.33
2022-12-12T00:35:25.866Z,23.15
2022-12-12T00:37:54.379Z,23.85
2022-12-12T00:40:24.845Z,22.00
2022-12-12T00:42:56.219Z,23.05
2022-12-12T00:45:25.047Z,20.90
2022-12-12T00:47:53.693Z,22.42
2022-12-12T00:50:52.861Z,22.52
2022-12-12T00:53:22.691Z,23.33
2022-12-12T00:55:59.736Z,22.15
2022-12-12T00:58:31.995Z,21.40
2022-12-12T01:01:07.034Z,20.70
2022-12-12T01:03:37.365Z,21.38
2022-12-12T01:06:05.619Z,20.95
2022-12-12T01:08:34.980Z,24.67
2022-12-12T01:11:22.845Z,22.80
2022-12-12T01:13:53.456Z,22.08
2022-12-12T01:16:29.573Z,20.67
2022-12-12T01:19:01.905Z,21.15
2022-12-12T01:21:29.743Z,22.00
2022-12-12T01:23:59.378Z,22.02
2022-12-12T01:26:36.128Z,20.58
2022-12-12T01:29:11.885Z,21.95
2022-12-12T01:31:40.512Z,23.50
2022-12-12T01:37:51.439Z,22.55
2022-12-12T01:43:24.758Z,19.85
2022-12-12T01:46:11.059Z,23.45
2022-12-12T01:49:06.362Z,21.80
2022-12-12T01:51:37.085Z,22.00
2022-12-12T01:54:11.197Z,23.25
2022-12-12T01:56:45.414Z,19.83
2022-12-12T01:59:16.369Z,18.67
2022-12-12T02:01:47.008Z,19.13
2022-12-12T02:04:18.131Z,19.83
2022-12-12T02:06:50.040Z,17.40
2022-12-12T02:09:17.698Z,20.60
2022-12-12T02:11:52.314Z,18.30
2022-12-12T02:14:30.926Z,19.33
2022-12-12T02:17:23.607Z,19.83
2022-12-12T02:20:12.858Z,21.38
2022-12-12T02:23:12.679Z,20.13
2022-12-12T02:26:15.245Z,23.17
2022-12-12T02:34:52.336Z,19.90
2022-12-12T02:37:42.945Z,19.00
2022-12-12T02:41:03.904Z,20.55
2022-12-12T02:43:54.669Z,20.65
2022-12-12T02:46:54.325Z,21.75
2022-12-12T02:49:51.438Z,19.00
2022-12-12T02:52:22.771Z,19.95
2022-12-12T02:54:53.904Z,19.95
2022-12-12T02:57:26.441Z,18.88
2022-12-12T03:00:07.564Z,19.67
2022-12-12T03:02:50.625Z,20.13
2022-12-12T03:06:15.172Z,18.15
2022-12-12T03:09:03.620Z,18.80
2022-12-12T03:11:55.919Z,18.20
2022-12-12T03:14:55.152Z,17.60
2022-12-12T03:17:46.312Z,19.55
2022-12-12T03:20:30.699Z,18.50
2022-12-12T03:23:16.937Z,17.80
2022-12-12T03:25:50.877Z,20.17
2022-12-12T03:28:33.275Z,20.02
2022-12-12T03:31:05.942Z,19.13
2022-12-12T03:33:47.946Z,18.20
2022-12-12T03:36:30.386Z,20.63
2022-12-12T03:42:59.830Z,18.55
2022-12-12T03:45:52.367Z,19.00
2022-12-12T03:48:34.842Z,19.85
2022-12-12T03:51:21.165Z,22.13
2022-12-12T03:54:14.131Z,17.75
2022-12-12T03:57:30.927Z,18.73
2022-12-12T04:00:27.040Z,19.15
2022-12-12T04:03:11.444Z,18.92
2022-12-12T04:06:11.649Z,19.25
2022-12-12T04:08:40.995Z,18.55
2022-12-12T04:11:36.174Z,17.63
2022-12-12T04:14:47.292Z,19.10
2022-12-12T04:17:24.922Z,18.02
2022-12-12T04:20:21.677Z,17.73
2022-12-12T04:23:17.593Z,19.77
2022-12-12T04:26:16.470Z,18.73
2022-12-12T04:28:55.943Z,18.30
2022-12-12T04:31:28.286Z,21.02
2022-12-12T04:34:08.064Z,18.98
2022-12-12T04:36:36.054Z,18.55
2022-12-12T04:39:06.546Z,19.65
2022-12-12T04:41:38.372Z,19.77
2022-12-12T04:47:56.647Z,19.30
2022-12-12T04:50:27.648Z,19.02
2022-12-12T04:53:16.596Z,18.33
2022-12-12T04:55:58.547Z,18.15
2022-12-12T04:58:25.920Z,17.38
2022-12-12T05:01:03.078Z,18.27
2022-12-12T05:03:41.499Z,20.05
2022-12-12T05:06:19.708Z,19.63
2022-12-12T05:08:50.982Z,19.73
2022-12-12T05:11:22.740Z,18.35
2022-12-12T05:13:51.496Z,21.45
2022-12-12T05:16:41.941Z,16.77
2022-12-12T05:19:08.743Z,17.88
2022-12-12T05:21:43.612Z,19.05
2022-12-12T05:24:10.466Z,18.25
2022-12-12T05:26:39.315Z,17.42
2022-12-12T05:29:07.690Z,18.85
2022-12-12T05:32:12.757Z,17.73
2022-12-12T05:34:40.473Z,17.80
2022-12-12T05:37:08.022Z,20.02
2022-12-12T05:39:37.087Z,17.95
2022-12-12T05:42:03.970Z,17.17
2022-12-12T05:47:22.295Z,16.58
2022-12-12T05:50:18.244Z,17.83
2022-12-12T05:52:51.772Z,16.42
2022-12-12T05:55:26.559Z,17.40
2022-12-12T05:57:54.238Z,16.33
2022-12-12T06:00:23.043Z,18.05
2022-12-12T06:02:51.572Z,18.33
2022-12-12T06:05:32.624Z,17.83
2022-12-12T06:08:00.718Z,16.67
2022-12-12T06:10:32.694Z,15.77
2022-12-12T06:21:25.492Z,17.50
2022-12-12T06:23:55.509Z,14.55
2022-12-12T06:26:23.343Z,17.60
2022-12-12T06:39:36.208Z,16.08
2022-12-12T06:45:00.582Z,16.77
2022-12-12T06:50:08.614Z,16.48
2022-12-12T07:06:04.635Z,14.00
2022-12-12T07:24:52.400Z,15.60
2022-12-12T07:35:34.844Z,16.25
2022-12-12T07:43:28.929Z,14.43
2022-12-12T07:46:00.703Z,14.80
2022-12-12T08:07:22.431Z,14.73
2022-12-12T08:12:38.003Z,13.90
2022-12-12T08:15:07.892Z,13.40
2022-12-12T08:20:17.753Z,13.65
2022-12-12T08:22:55.598Z,14.13
2022-12-12T08:25:23.219Z,14.80
2022-12-12T08:27:59.568Z,14.52
2022-12-12T08:30:29.983Z,15.50
2022-12-12T08:32:58.239Z,12.75
2022-12-12T08:35:29.547Z,13.95
2022-12-12T08:37:57.746Z,13.85
2022-12-12T08:40:27.200Z,15.25
2022-12-12T08:42:56.959Z,14.10
2022-12-12T08:45:25.139Z,13.15
2022-12-12T08:50:35.903Z,12.90
2022-12-12T08:53:06.301Z,13.20
2022-12-12T08:55:35.051Z,13.65
2022-12-12T08:58:02.854Z,12.23
2022-12-12T09:00:31.867Z,12.52
2022-12-12T09:02:59.475Z,13.15
2022-12-12T09:05:26.977Z,14.55
2022-12-12T09:07:56.478Z,14.88
2022-12-12T09:10:32.090Z,14.05
2022-12-12T09:13:08.686Z,12.32
2022-12-12T09:15:47.394Z,14.63
2022-12-12T09:18:39.777Z,14.95
2022-12-12T09:21:12.023Z,11.90
2022-12-12T09:23:38.799Z,13.73
2022-12-12T09:26:07.815Z,12.88
2022-12-12T09:28:55.611Z,11.68
2022-12-12T09:31:25.487Z,12.52
2022-12-12T09:33:54.928Z,13.65
2022-12-12T09:36:24.769Z,11.95
2022-12-12T09:38:53.232Z,12.07
2022-12-12T09:41:30.787Z,13.27
2022-12-12T09:44:17.816Z,12.20
2022-12-12T09:46:50.762Z,13.38
2022-12-12T09:49:32.809Z,13.48
2022-12-12T09:52:03.915Z,12.27
2022-12-12T09:54:32.117Z,11.50
2022-12-12T09:57:00.709Z,12.63
2022-12-12T09:59:41.228Z,12.80
2022-12-12T10:02:17.190Z,11.27
2022-12-12T10:05:01.081Z,11.05
2022-12-12T10:07:38.143Z,13.23
2022-12-12T10:10:31.953Z,12.65
2022-12-12T10:13:02.527Z,12.05
2022-12-12T10:15:40.797Z,11.63
2022-12-12T10:24:11.409Z,10.82
2022-12-12T10:26:43.674Z,11.95
2022-12-12T10:29:26.836Z,13.20
2022-12-12T10:32:15.595Z,12.05
2022-12-12T10:35:03.145Z,12.77
2022-12-12T10:38:12.613Z,12.50
2022-12-12T10:41:03.071Z,12.80
2022-12-12T10:43:41.577Z,12.57
2022-12-12T10:46:13.212Z,12.18
2022-12-12T10:48:42.332Z,14.73
2022-12-12T10:51:13.451Z,14.32
2022-12-12T10:53:42.964Z,13.35
2022-12-12T10:56:24.933Z,12.38
2022-12-12T10:58:57.191Z,13.88
2022-12-12T11:04:32.640Z,14.20
2022-12-12T11:07:01.668Z,12.27
2022-12-12T11:09:33.027Z,11.93
2022-12-12T11:12:14.384Z,13.23
2022-12-12T11:14:51.921Z,12.40
2022-12-12T11:17:31.258Z,12.43
2022-12-12T11:20:00.860Z,12.35
2022-12-12T11:22:34.710Z,11.38
2022-12-12T11:25:02.237Z,12.30
2022-12-12T11:30:01.258Z,11.40
2022-12-12T11:40:32.219Z,11.00
2022-12-12T11:43:27.286Z,11.90
2022-12-12T11:54:29.882Z,9.50
2022-12-12T11:57:15.062Z,9.25
2022-12-12T12:00:05.480Z,8.98
2022-12-12T12:05:33.585Z,7.78
2022-12-12T12:08:22.233Z,8.98
2022-12-12T12:11:29.131Z,7.95
2022-12-12T12:14:27.406Z,7.57
2022-12-12T12:17:04.364Z,9.30
2022-12-12T12:20:00.503Z,9.20
2022-12-12T12:22:48.478Z,8.00
2022-12-12T12:25:29.114Z,9.13
2022-12-12T12:28:35.911Z,8.10
2022-12-12T12:31:37.674Z,7.97
2022-12-12T12:34:08.528Z,6.53
2022-12-12T12:37:09.246Z,8.57
2022-12-12T12:40:00.063Z,6.75
2022-12-12T12:42:52.796Z,7.30
2022-12-12T12:45:53.673Z,7.53
2022-12-12T12:48:56.979Z,6.03
2022-12-12T12:51:37.335Z,6.70
2022-12-12T12:54:30.293Z,6.70
2022-12-12T12:57:19.778Z,6.75
2022-12-12T13:00:16.883Z,6.00
2022-12-12T13:03:09.357Z,5.88
2022-12-12T13:05:56.785Z,6.95
2022-12-12T13:09:22.518Z,6.30
2022-12-12T13:11:57.237Z,6.43
2022-12-12T13:14:35.728Z,5.63
2022-12-12T13:17:07.412Z,6.25
2022-12-12T13:19:42.397Z,5.82
2022-12-12T13:22:27.764Z,6.55
2022-12-12T13:25:34.619Z,6.68
2022-12-12T13:28:10.981Z,5.20
2022-12-12T13:31:12.600Z,7.28
2022-12-12T13:33:57.450Z,4.60
2022-12-12T13:36:37.546Z,5.28
2022-12-12T13:39:07.197Z,5.00
2022-12-12T13:41:54.557Z,5.45
2022-12-12T13:44:43.492Z,5.00
2022-12-12T13:47:22.643Z,4.47
2022-12-12T13:50:03.300Z,5.05
2022-12-12T13:52:35.654Z,5.93
2022-12-12T13:55:13.669Z,4.82
2022-12-12T13:58:09.764Z,4.80
2022-12-12T14:00:42.676Z,4.65
2022-12-12T14:03:31.385Z,5.88
2022-12-12T14:06:11.436Z,5.65
2022-12-12T14:08:48.611Z,4.72
2022-12-12T14:11:31.700Z,5.57
2022-12-12T14:14:10.357Z,6.45
2022-12-12T14:16:37.673Z,5.65
2022-12-12T14:19:07.785Z,5.55
2022-12-12T14:21:50.190Z,6.15
2022-12-12T14:24:48.128Z,7.70
2022-12-12T14:27:18.424Z,5.43
2022-12-12T14:29:46.011Z,5.65
2022-12-12T14:32:54.290Z,6.20
2022-12-12T14:35:47.542Z,5.93
2022-12-12T14:38:37.925Z,6.35
2022-12-12T14:41:17.344Z,5.35
2022-12-12T14:44:34.977Z,8.38
2022-12-12T14:46:42.595Z,7.50
2022-12-12T14:49:16.745Z,5.68
2022-12-12T14:51:46.529Z,5.70
2022-12-12T14:54:23.544Z,5.03
2022-12-12T14:56:53.434Z,5.50
2022-12-12T14:59:37.459Z,4.60
2022-12-12T15:02:35.479Z,5.20
2022-12-12T15:05:11.136Z,5.10
2022-12-12T15:07:59.313Z,5.50
2022-12-12T15:10:30.994Z,5.15
2022-12-12T15:12:59.791Z,5.28
2022-12-12T15:15:32.671Z,6.30
2022-12-12T15:18:02.049Z,5.45
2022-12-12T15:20:34.205Z,6.30
2022-12-12T15:23:09.260Z,7.40
2022-12-12T15:25:48.754Z,6.32
2022-12-12T15:28:19.091Z,6.13
2022-12-12T15:30:52.762Z,8.05
2022-12-12T15:33:27.927Z,5.03
2022-12-12T15:36:01.756Z,5.63
2022-12-12T15:38:33.405Z,6.60
2022-12-12T15:41:09.560Z,7.53
2022-12-12T15:43:47.713Z,6.43
2022-12-12T15:46:20.403Z,6.25
2022-12-12T15:48:53.425Z,5.75
2022-12-12T15:51:25.213Z,5.90
2022-12-12T15:53:57.705Z,6.55
2022-12-12T15:56:31.272Z,4.97
2022-12-12T15:59:11.211Z,5.38
2022-12-12T16:01:39.854Z,6.95
2022-12-12T16:04:26.693Z,7.65
2022-12-12T16:09:40.771Z,5.35
2022-12-12T16:12:37.715Z,5.68
2022-12-12T16:18:13.448Z,4.75
2022-12-12T16:20:47.835Z,6.55
2022-12-12T16:23:30.707Z,5.95
2022-12-12T16:26:01.495Z,5.68
2022-12-12T16:28:30.701Z,5.97
2022-12-12T16:31:09.932Z,5.72
2022-12-12T16:33:41.547Z,5.88
2022-12-12T16:36:14.779Z,6.80
2022-12-12T16:38:49.471Z,6.75
2022-12-12T16:41:21.819Z,4.97
2022-12-12T16:43:51.447Z,5.35
2022-12-12T16:46:23.430Z,6.50
2022-12-12T16:48:53.223Z,4.90
2022-12-12T16:51:32.896Z,6.68
2022-12-12T16:54:00.824Z,5.72
2022-12-12T16:56:28.754Z,4.40
2022-12-12T16:58:56.522Z,4.90
2022-12-12T17:01:23.822Z,4.93
2022-12-12T17:03:56.726Z,4.43
2022-12-12T17:06:24.180Z,5.40
2022-12-12T17:08:59.863Z,5.07
2022-12-12T17:11:33.797Z,4.28
2022-12-12T17:14:02.832Z,4.55
2022-12-12T17:16:29.758Z,5.20
2022-12-12T17:19:03.830Z,4.35
2022-12-12T17:21:33.246Z,5.43
2022-12-12T17:24:00.832Z,5.25
2022-12-12T17:26:31.148Z,5.22
2022-12-12T17:29:00.750Z,5.93
2022-12-12T17:31:28.465Z,5.50
2022-12-12T17:33:57.108Z,7.57
2022-12-12T17:36:24.369Z,5.60
2022-12-12T17:38:56.484Z,5.88
2022-12-12T17:41:24.154Z,5.80
2022-12-12T17:43:55.404Z,5.90
2022-12-12T17:46:29.369Z,4.38
2022-12-12T17:49:02.656Z,4.57
2022-12-12T17:51:29.705Z,5.15
2022-12-12T17:53:56.607Z,4.88
2022-12-12T17:56:29.355Z,4.28
2022-12-12T17:58:57.412Z,5.28
2022-12-12T18:01:33.914Z,4.97
2022-12-12T18:04:04.442Z,4.07
2022-12-12T18:06:35.116Z,4.35
2022-12-12T18:09:05.899Z,4.00
2022-12-12T18:11:37.319Z,4.72
2022-12-12T18:14:06.807Z,4.72
2022-12-12T18:16:38.263Z,4.60
2022-12-12T18:19:05.319Z,4.60
2022-12-12T18:21:59.824Z,5.28
2022-12-12T18:24:22.310Z,5.63
2022-12-12T18:26:58.356Z,5.05
2022-12-12T18:29:25.746Z,4.70
2022-12-12T18:31:55.849Z,6.40
2022-12-12T18:34:24.112Z,6.18
2022-12-12T18:36:52.506Z,6.30
2022-12-12T18:39:25.575Z,6.10
2022-12-12T18:41:52.750Z,6.60
2022-12-12T18:44:27.684Z,6.57
2022-12-12T18:46:56.554Z,5.47
2022-12-12T18:49:33.562Z,7.03
2022-12-12T18:52:04.662Z,6.47
2022-12-12T18:54:36.241Z,6.60
2022-12-12T18:57:10.309Z,6.45
2022-12-12T18:59:42.376Z,7.30
2022-12-12T19:02:13.177Z,7.03
2022-12-12T19:04:44.858Z,7.45
2022-12-12T19:07:15.775Z,6.65
2022-12-12T19:09:46.604Z,7.30
2022-12-12T19:12:14.310Z,7.35
2022-12-12T19:17:35.668Z,8.00
2022-12-12T19:20:02.873Z,6.88
2022-12-12T19:22:47.026Z,6.50
2022-12-12T19:25:25.187Z,7.07
2022-12-12T19:27:52.211Z,7.53
2022-12-12T19:30:19.268Z,7.50
2022-12-12T19:33:11.329Z,6.95
2022-12-12T19:35:41.794Z,7.97
2022-12-12T19:38:11.100Z,6.95
2022-12-12T19:40:43.057Z,6.85
2022-12-12T19:43:14.067Z,7.03
2022-12-12T19:45:46.009Z,6.65
2022-12-12T19:48:18.509Z,7.47
2022-12-12T19:50:50.319Z,8.57
2022-12-12T19:53:21.855Z,7.80
2022-12-12T19:55:49.026Z,8.55
2022-12-12T19:58:19.837Z,8.55
2022-12-12T20:00:59.998Z,8.15
2022-12-12T20:03:28.311Z,8.57
2022-12-12T20:06:02.543Z,8.73
2022-12-12T20:08:31.865Z,9.02
2022-12-12T20:11:13.478Z,9.55
2022-12-12T20:13:42.728Z,7.50
2022-12-12T20:16:15.404Z,9.73
2022-12-12T20:18:45.020Z,10.50
2022-12-12T20:21:36.224Z,8.80
2022-12-12T20:24:04.901Z,10.02
2022-12-12T20:26:32.139Z,9.23
2022-12-12T20:29:05.405Z,10.57
2022-12-12T20:31:36.158Z,10.25
2022-12-12T20:34:03.694Z,10.77
2022-12-12T20:36:33.420Z,11.05
2022-12-12T20:39:07.165Z,9.27
2022-12-12T20:41:38.075Z,8.70
2022-12-12T20:44:06.910Z,9.10
2022-12-12T20:46:37.067Z,8.77
2022-12-12T20:49:10.955Z,10.15
2022-12-12T20:51:55.786Z,8.05
2022-12-12T20:54:24.441Z,9.43
2022-12-12T20:56:55.099Z,10.18
2022-12-12T20:59:30.764Z,9.32
2022-12-12T21:01:57.939Z,8.13
2022-12-12T21:04:24.991Z,9.05
2022-12-12T21:06:52.835Z,8.15
2022-12-12T21:09:24.780Z,8.00
2022-12-12T21:11:55.023Z,9.30
2022-12-12T21:14:22.781Z,7.30
2022-12-12T21:16:51.387Z,7.90
2022-12-12T21:19:19.169Z,7.32
2022-12-12T21:21:47.123Z,7.55
2022-12-12T21:24:16.971Z,6.95
2022-12-12T21:26:44.540Z,7.50
2022-12-12T21:29:14.362Z,7.28
2022-12-12T21:31:55.402Z,8.27
2022-12-12T21:34:53.532Z,7.30
2022-12-12T21:37:23.922Z,7.93
2022-12-12T21:46:33.452Z,9.38
2022-12-12T21:52:16.980Z,8.65
2022-12-12T21:54:53.120Z,9.40
2022-12-12T21:57:32.111Z,8.00
2022-12-12T22:02:54.370Z,8.07
2022-12-12T22:05:30.598Z,8.10
2022-12-12T22:08:10.028Z,9.60
2022-12-12T22:10:40.256Z,8.25
2022-12-12T22:13:18.793Z,7.90
2022-12-12T22:22:47.852Z,8.50
2022-12-12T22:25:16.123Z,8.88
2022-12-12T22:27:46.987Z,8.73
2022-12-12T22:30:13.860Z,7.20
2022-12-12T22:33:34.711Z,7.75
2022-12-12T22:36:47.379Z,8.90
2022-12-12T22:39:18.674Z,8.25
2022-12-12T22:42:29.815Z,7.38
2022-12-12T22:44:58.533Z,7.40
2022-12-12T22:47:31.537Z,8.52
2022-12-12T22:49:59.026Z,7.65
2022-12-12T22:52:31.384Z,8.57
2022-12-12T22:55:02.251Z,9.13
2022-12-12T22:57:29.129Z,8.15
2022-12-12T22:59:57.304Z,8.05
2022-12-12T23:02:25.506Z,9.95
2022-12-12T23:04:54.796Z,9.25
2022-12-12T23:07:23.393Z,8.82
2022-12-12T23:09:53.881Z,8.43
2022-12-12T23:12:23.038Z,9.00
2022-12-12T23:14:50.232Z,9.40
2022-12-12T23:17:18.726Z,9.55
2022-12-12T23:19:47.906Z,9.40
2022-12-12T23:22:17.500Z,9.30
2022-12-12T23:24:47.046Z,9.75
2022-12-12T23:27:14.309Z,8.50
2022-12-12T23:29:41.392Z,10.35
2022-12-12T23:32:08.607Z,9.15
2022-12-12T23:34:36.550Z,9.30
2022-12-12T23:37:06.877Z,8.73
2022-12-12T23:39:34.253Z,10.02
2022-12-12T23:42:01.533Z,11.40
2022-12-12T23:44:31.262Z,10.55
2022-12-12T23:46:58.289Z,9.65
2022-12-12T23:49:26.736Z,10.93
2022-12-12T23:51:56.295Z,10.10
2022-12-12T23:54:28.213Z,8.75
2022-12-12T23:56:59.642Z,9.77
2022-12-12T23:59:27.224Z,9.52
